sensor_id;sensor_type;location;lat;lon;timestamp;pressure;altitude;pressure_sealevel;temperature;humidity
15382;BME280;7789;51.364;12.358;2023-04-29T00:02:15;99741.16;;;13.68;100.00
15382;BME280;7789;51.364;12.358;2023-04-29T00:07:18;99744.63;;;13.68;100.00
15382;BME280;7789;51.364;12.358;2023-04-29T00:12:24;99739.03;;;13.71;100.00
15382;BME280;7789;51.364;12.358;2023-04-29T00:17:31;99730.34;;;13.71;100.00
15382;BME280;7789;51.364;12.358;2023-04-29T00:22:35;99736.56;;;13.70;100.00
15382;BME280;7789;51.364;12.358;2023-04-29T00:27:39;99725.75;;;13.73;100.00
15382;BME280;7789;51.364;12.358;2023-04-29T00:32:43;99721.97;;;13.75;100.00
15382;BME280;7789;51.364;12.358;2023-04-29T00:37:47;99718.69;;;13.73;100.00
15382;BME280;7789;51.364;12.358;2023-04-29T00:42:52;99715.91;;;13.75;100.00
15382;BME280;7789;51.364;12.358;2023-04-29T00:47:55;99715.25;;;13.73;100.00
15382;BME280;7789;51.364;12.358;2023-04-29T00:52:59;99720.19;;;13.76;100.00
15382;BME280;7789;51.364;12.358;2023-04-29T00:58:04;99730.84;;;13.74;100.00
15382;BME280;7789;51.364;12.358;2023-04-29T01:03:08;99736.44;;;13.79;100.00
15382;BME280;7789;51.364;12.358;2023-04-29T01:08:21;99742.69;;;13.86;100.00
15382;BME280;7789;51.364;12.358;2023-04-29T01:13:36;99740.22;;;13.85;100.00
15382;BME280;7789;51.364;12.358;2023-04-29T01:18:49;99734.16;;;13.84;100.00
15382;BME280;7789;51.364;12.358;2023-04-29T01:24:21;99735.75;;;13.77;100.00
15382;BME280;7789;51.364;12.358;2023-04-29T01:29:30;99739.88;;;13.80;100.00
15382;BME280;7789;51.364;12.358;2023-04-29T01:34:41;99744.16;;;13.81;100.00
15382;BME280;7789;51.364;12.358;2023-04-29T01:39:57;99750.25;;;13.81;100.00
15382;BME280;7789;51.364;12.358;2023-04-29T01:45:06;99740.22;;;13.85;100.00
15382;BME280;7789;51.364;12.358;2023-04-29T01:50:10;99747.44;;;13.83;100.00
15382;BME280;7789;51.364;12.358;2023-04-29T01:55:15;99754.84;;;13.79;100.00
15382;BME280;7789;51.364;12.358;2023-04-29T02:00:19;99760.56;;;13.83;100.00
15382;BME280;7789;51.364;12.358;2023-04-29T02:05:23;99758.78;;;13.83;100.00
15382;BME280;7789;51.364;12.358;2023-04-29T02:10:29;99761.22;;;13.85;100.00
15382;BME280;7789;51.364;12.358;2023-04-29T02:15:32;99763.38;;;13.89;100.00
15382;BME280;7789;51.364;12.358;2023-04-29T02:20:38;99768.63;;;13.89;100.00
15382;BME280;7789;51.364;12.358;2023-04-29T02:25:43;99761.25;;;13.93;100.00
15382;BME280;7789;51.364;12.358;2023-04-29T02:30:46;99764.69;;;13.93;100.00
15382;BME280;7789;51.364;12.358;2023-04-29T02:35:49;99767.50;;;13.92;100.00
15382;BME280;7789;51.364;12.358;2023-04-29T02:40:54;99767.66;;;13.90;100.00
15382;BME280;7789;51.364;12.358;2023-04-29T02:45:58;99771.13;;;13.91;100.00
15382;BME280;7789;51.364;12.358;2023-04-29T02:51:01;99766.00;;;13.89;100.00
15382;BME280;7789;51.364;12.358;2023-04-29T02:56:06;99768.63;;;13.89;100.00
15382;BME280;7789;51.364;12.358;2023-04-29T03:01:09;99766.34;;;13.86;100.00
15382;BME280;7789;51.364;12.358;2023-04-29T03:06:13;99764.69;;;13.85;100.00
15382;BME280;7789;51.364;12.358;2023-04-29T03:11:18;99764.53;;;13.87;100.00
15382;BME280;7789;51.364;12.358;2023-04-29T03:16:21;99771.59;;;13.86;100.00
15382;BME280;7789;51.364;12.358;2023-04-29T03:21:25;99769.44;;;13.82;100.00
15382;BME280;7789;51.364;12.358;2023-04-29T03:26:30;99764.38;;;13.80;100.00
15382;BME280;7789;51.364;12.358;2023-04-29T03:31:33;99763.38;;;13.81;100.00
15382;BME280;7789;51.364;12.358;2023-04-29T03:36:37;99760.25;;;13.78;100.00
15382;BME280;7789;51.364;12.358;2023-04-29T03:41:41;99761.88;;;13.79;100.00
15382;BME280;7789;51.364;12.358;2023-04-29T03:46:45;99762.88;;;13.78;100.00
15382;BME280;7789;51.364;12.358;2023-04-29T03:51:49;99754.84;;;13.79;100.00
15382;BME280;7789;51.364;12.358;2023-04-29T03:56:53;99761.75;;;13.80;100.00
15382;BME280;7789;51.364;12.358;2023-04-29T04:01:57;99765.16;;;13.81;100.00
15382;BME280;7789;51.364;12.358;2023-04-29T04:07:00;99773.91;;;13.81;100.00
15382;BME280;7789;51.364;12.358;2023-04-29T04:12:06;99777.97;;;13.84;100.00
15382;BME280;7789;51.364;12.358;2023-04-29T04:17:09;99782.25;;;13.85;100.00
15382;BME280;7789;51.364;12.358;2023-04-29T04:22:13;99785.38;;;13.88;100.00
15382;BME280;7789;51.364;12.358;2023-04-29T04:27:19;99793.78;;;13.92;100.00
15382;BME280;7789;51.364;12.358;2023-04-29T04:32:22;99793.47;;;13.95;100.00
15382;BME280;7789;51.364;12.358;2023-04-29T04:37:26;99796.75;;;13.97;100.00
15382;BME280;7789;51.364;12.358;2023-04-29T04:42:30;99792.16;;;13.99;100.00
15382;BME280;7789;51.364;12.358;2023-04-29T04:47:33;99793.66;;;14.01;100.00
15382;BME280;7789;51.364;12.358;2023-04-29T04:52:37;99787.22;;;14.04;100.00
15382;BME280;7789;51.364;12.358;2023-04-29T04:57:42;99806.78;;;14.09;100.00
15382;BME280;7789;51.364;12.358;2023-04-29T05:02:45;99807.44;;;14.11;100.00
15382;BME280;7789;51.364;12.358;2023-04-29T05:07:49;99821.56;;;14.10;100.00
15382;BME280;7789;51.364;12.358;2023-04-29T05:12:53;99809.25;;;14.11;100.00
15382;BME280;7789;51.364;12.358;2023-04-29T05:17:56;99803.53;;;14.15;100.00
15382;BME280;7789;51.364;12.358;2023-04-29T05:23:00;99819.34;;;14.23;100.00
15382;BME280;7789;51.364;12.358;2023-04-29T05:28:06;99828.88;;;14.24;100.00
15382;BME280;7789;51.364;12.358;2023-04-29T05:33:09;99833.97;;;14.34;100.00
15382;BME280;7789;51.364;12.358;2023-04-29T05:38:13;99837.28;;;14.44;100.00
15382;BME280;7789;51.364;12.358;2023-04-29T05:43:17;99832.03;;;14.52;100.00
15382;BME280;7789;51.364;12.358;2023-04-29T05:48:21;99847.66;;;14.61;100.00
15382;BME280;7789;51.364;12.358;2023-04-29T05:53:25;99856.22;;;14.71;100.00
15382;BME280;7789;51.364;12.358;2023-04-29T05:58:33;99858.84;;;14.79;100.00
15382;BME280;7789;51.364;12.358;2023-04-29T06:03:39;99866.91;;;14.85;100.00
15382;BME280;7789;51.364;12.358;2023-04-29T06:08:44;99872.31;;;14.92;100.00
15382;BME280;7789;51.364;12.358;2023-04-29T06:13:48;99881.06;;;14.92;100.00
15382;BME280;7789;51.364;12.358;2023-04-29T06:18:53;99883.19;;;14.97;100.00
15382;BME280;7789;51.364;12.358;2023-04-29T06:23:59;99886.81;;;15.04;100.00
15382;BME280;7789;51.364;12.358;2023-04-29T06:29:04;99894.88;;;15.10;100.00
15382;BME280;7789;51.364;12.358;2023-04-29T06:34:07;99904.09;;;15.14;100.00
15382;BME280;7789;51.364;12.358;2023-04-29T06:39:11;99910.34;;;15.13;100.00
15382;BME280;7789;51.364;12.358;2023-04-29T06:44:17;99912.81;;;15.07;100.00
15382;BME280;7789;51.364;12.358;2023-04-29T06:49:21;99917.06;;;15.08;100.00
15382;BME280;7789;51.364;12.358;2023-04-29T06:54:24;99921.84;;;15.12;100.00
15382;BME280;7789;51.364;12.358;2023-04-29T06:59:31;99919.22;;;15.12;100.00
15382;BME280;7789;51.364;12.358;2023-04-29T07:04:34;99920.56;;;15.08;100.00
15382;BME280;7789;51.364;12.358;2023-04-29T07:09:38;99929.09;;;15.10;100.00
15382;BME280;7789;51.364;12.358;2023-04-29T07:14:43;99938.78;;;15.10;100.00
15382;BME280;7789;51.364;12.358;2023-04-29T07:19:46;99940.47;;;15.19;100.00
15382;BME280;7789;51.364;12.358;2023-04-29T07:24:52;99944.72;;;15.28;100.00
15382;BME280;7789;51.364;12.358;2023-04-29T07:29:58;99950.19;;;15.34;100.00
15382;BME280;7789;51.364;12.358;2023-04-29T07:35:02;99960.84;;;15.25;100.00
15382;BME280;7789;51.364;12.358;2023-04-29T07:40:07;99962.34;;;15.19;100.00
15382;BME280;7789;51.364;12.358;2023-04-29T07:45:12;99971.88;;;15.20;100.00
15382;BME280;7789;51.364;12.358;2023-04-29T07:50:16;99978.16;;;15.27;100.00
15382;BME280;7789;51.364;12.358;2023-04-29T07:55:19;99987.38;;;15.39;100.00
15382;BME280;7789;51.364;12.358;2023-04-29T08:00:39;99989.69;;;15.50;100.00
15382;BME280;7789;51.364;12.358;2023-04-29T08:05:42;99992.81;;;15.46;100.00
15382;BME280;7789;51.364;12.358;2023-04-29T08:10:46;100002.22;;;15.48;100.00
15382;BME280;7789;51.364;12.358;2023-04-29T08:15:50;100013.06;;;15.53;100.00
15382;BME280;7789;51.364;12.358;2023-04-29T08:20:54;100031.53;;;15.45;100.00
15382;BME280;7789;51.364;12.358;2023-04-29T08:25:57;100035.78;;;15.38;100.00
15382;BME280;7789;51.364;12.358;2023-04-29T08:31:02;100043.53;;;15.40;100.00
15382;BME280;7789;51.364;12.358;2023-04-29T08:36:07;100049.78;;;15.63;100.00
15382;BME280;7789;51.364;12.358;2023-04-29T08:41:11;100047.81;;;15.73;100.00
15382;BME280;7789;51.364;12.358;2023-04-29T08:46:27;100052.44;;;15.87;100.00
15382;BME280;7789;51.364;12.358;2023-04-29T08:51:31;100057.88;;;15.77;100.00
15382;BME280;7789;51.364;12.358;2023-04-29T08:56:36;100069.22;;;15.62;100.00
15382;BME280;7789;51.364;12.358;2023-04-29T09:01:53;100069.06;;;15.55;100.00
15382;BME280;7789;51.364;12.358;2023-04-29T09:06:56;100076.50;;;15.52;100.00
15382;BME280;7789;51.364;12.358;2023-04-29T09:12:00;100087.50;;;15.55;100.00
15382;BME280;7789;51.364;12.358;2023-04-29T09:17:39;100094.78;;;15.61;100.00
15382;BME280;7789;51.364;12.358;2023-04-29T09:22:47;100094.59;;;15.55;100.00
15382;BME280;7789;51.364;12.358;2023-04-29T09:27:50;100111.88;;;15.57;100.00
15382;BME280;7789;51.364;12.358;2023-04-29T09:33:26;100125.91;;;15.58;100.00
15382;BME280;7789;51.364;12.358;2023-04-29T09:38:32;100124.75;;;15.60;100.00
15382;BME280;7789;51.364;12.358;2023-04-29T09:43:36;100136.13;;;15.93;100.00
15382;BME280;7789;51.364;12.358;2023-04-29T09:48:41;100138.44;;;15.88;100.00
15382;BME280;7789;51.364;12.358;2023-04-29T09:53:44;100156.53;;;15.83;100.00
15382;BME280;7789;51.364;12.358;2023-04-29T09:58:47;100160.97;;;15.74;100.00
15382;BME280;7789;51.364;12.358;2023-04-29T10:03:53;100170.53;;;15.67;100.00
15382;BME280;7789;51.364;12.358;2023-04-29T10:08:57;100174.47;;;15.55;100.00
15382;BME280;7789;51.364;12.358;2023-04-29T10:14:02;100191.41;;;15.45;100.00
15382;BME280;7789;51.364;12.358;2023-04-29T10:19:11;100190.06;;;15.33;100.00
15382;BME280;7789;51.364;12.358;2023-04-29T10:24:16;100200.59;;;15.33;100.00
15382;BME280;7789;51.364;12.358;2023-04-29T10:29:20;100185.00;;;15.55;100.00
15382;BME280;7789;51.364;12.358;2023-04-29T10:34:26;100207.53;;;15.42;100.00
15382;BME280;7789;51.364;12.358;2023-04-29T10:39:41;100206.53;;;15.35;100.00
15382;BME280;7789;51.364;12.358;2023-04-29T10:45:16;100217.19;;;15.25;100.00
15382;BME280;7789;51.364;12.358;2023-04-29T10:50:21;100222.84;;;15.13;100.00
15382;BME280;7789;51.364;12.358;2023-04-29T10:55:25;100225.94;;;15.00;100.00
15382;BME280;7789;51.364;12.358;2023-04-29T11:00:30;100225.72;;;14.94;100.00
15382;BME280;7789;51.364;12.358;2023-04-29T11:05:36;100234.56;;;14.85;100.00
15382;BME280;7789;51.364;12.358;2023-04-29T11:10:40;100246.09;;;14.84;100.00
15382;BME280;7789;51.364;12.358;2023-04-29T11:15:43;100241.81;;;14.83;100.00
15382;BME280;7789;51.364;12.358;2023-04-29T11:21:14;100246.75;;;14.86;100.00
15382;BME280;7789;51.364;12.358;2023-04-29T11:26:18;100246.38;;;15.06;100.00
15382;BME280;7789;51.364;12.358;2023-04-29T11:31:25;100254.50;;;15.21;100.00
15382;BME280;7789;51.364;12.358;2023-04-29T11:36:32;100251.88;;;15.21;100.00
15382;BME280;7789;51.364;12.358;2023-04-29T11:41:37;100267.47;;;15.14;100.00
15382;BME280;7789;51.364;12.358;2023-04-29T11:46:40;100278.47;;;15.10;100.00
15382;BME280;7789;51.364;12.358;2023-04-29T11:51:45;100290.94;;;15.00;100.00
15382;BME280;7789;51.364;12.358;2023-04-29T11:56:48;100301.16;;;15.03;100.00
15382;BME280;7789;51.364;12.358;2023-04-29T12:01:52;100305.28;;;15.05;100.00
15382;BME280;7789;51.364;12.358;2023-04-29T12:07:21;100308.38;;;15.01;100.00
15382;BME280;7789;51.364;12.358;2023-04-29T12:12:26;100315.97;;;15.04;100.00
15382;BME280;7789;51.364;12.358;2023-04-29T12:17:34;100317.72;;;15.21;100.00
15382;BME280;7789;51.364;12.358;2023-04-29T12:22:43;100312.25;;;15.40;99.59
15382;BME280;7789;51.364;12.358;2023-04-29T12:27:47;100306.59;;;15.60;99.33
15382;BME280;7789;51.364;12.358;2023-04-29T12:32:51;100307.84;;;15.90;98.83
15382;BME280;7789;51.364;12.358;2023-04-29T12:37:57;100317.47;;;16.23;97.42
15382;BME280;7789;51.364;12.358;2023-04-29T12:43:06;100318.84;;;16.51;95.51
15382;BME280;7789;51.364;12.358;2023-04-29T12:48:10;100317.72;;;16.61;93.63
15382;BME280;7789;51.364;12.358;2023-04-29T12:53:29;100320.69;;;16.82;92.27
15382;BME280;7789;51.364;12.358;2023-04-29T12:58:33;100324.28;;;16.97;90.08
15382;BME280;7789;51.364;12.358;2023-04-29T13:03:36;100322.25;;;17.23;89.11
15382;BME280;7789;51.364;12.358;2023-04-29T13:08:42;100327.06;;;17.19;87.42
15382;BME280;7789;51.364;12.358;2023-04-29T13:13:45;100328.22;;;17.09;85.68
15382;BME280;7789;51.364;12.358;2023-04-29T13:18:48;100335.34;;;16.92;86.05
15382;BME280;7789;51.364;12.358;2023-04-29T13:24:16;100339.31;;;16.80;86.89
15382;BME280;7789;51.364;12.358;2023-04-29T13:29:20;100336.84;;;16.79;86.09
15382;BME280;7789;51.364;12.358;2023-04-29T13:34:24;100337.16;;;16.76;87.75
15382;BME280;7789;51.364;12.358;2023-04-29T13:39:29;100342.13;;;16.63;86.48
15382;BME280;7789;51.364;12.358;2023-04-29T13:44:32;100339.50;;;16.63;86.90
15382;BME280;7789;51.364;12.358;2023-04-29T13:49:53;100341.63;;;16.60;86.93
15382;BME280;7789;51.364;12.358;2023-04-29T13:55:01;100341.94;;;16.65;87.28
15382;BME280;7789;51.364;12.358;2023-04-29T14:00:11;100342.28;;;16.77;86.40
15382;BME280;7789;51.364;12.358;2023-04-29T14:05:35;100347.25;;;16.88;86.30
15382;BME280;7789;51.364;12.358;2023-04-29T14:10:41;100345.41;;;17.05;85.49
15382;BME280;7789;51.364;12.358;2023-04-29T14:15:58;100347.72;;;17.16;85.26
15382;BME280;7789;51.364;12.358;2023-04-29T14:21:04;100356.94;;;17.20;84.92
15382;BME280;7789;51.364;12.358;2023-04-29T14:26:09;100357.75;;;17.28;84.62
15382;BME280;7789;51.364;12.358;2023-04-29T14:31:30;100365.53;;;17.30;83.75
15382;BME280;7789;51.364;12.358;2023-04-29T14:36:36;100360.41;;;17.28;82.70
15382;BME280;7789;51.364;12.358;2023-04-29T14:41:40;100364.88;;;17.20;81.82
15382;BME280;7789;51.364;12.358;2023-04-29T14:46:44;100378.41;;;17.25;83.11
15382;BME280;7789;51.364;12.358;2023-04-29T14:51:47;100373.78;;;17.19;82.32
15382;BME280;7789;51.364;12.358;2023-04-29T14:56:52;100385.84;;;17.13;82.47
15382;BME280;7789;51.364;12.358;2023-04-29T15:01:55;100395.25;;;17.08;83.02
15382;BME280;7789;51.364;12.358;2023-04-29T15:07:00;100397.25;;;16.98;83.61
15382;BME280;7789;51.364;12.358;2023-04-29T15:12:05;100391.97;;;16.90;83.15
15382;BME280;7789;51.364;12.358;2023-04-29T15:17:09;100392.47;;;16.85;83.39
15382;BME280;7789;51.364;12.358;2023-04-29T15:22:12;100394.13;;;16.86;83.56
15382;BME280;7789;51.364;12.358;2023-04-29T15:27:16;100401.38;;;16.84;81.88
15382;BME280;7789;51.364;12.358;2023-04-29T15:32:21;100413.06;;;16.74;81.44
15382;BME280;7789;51.364;12.358;2023-04-29T15:37:25;100415.06;;;16.72;81.53
15382;BME280;7789;51.364;12.358;2023-04-29T15:42:31;100420.84;;;16.76;81.97
15382;BME280;7789;51.364;12.358;2023-04-29T15:47:34;100418.53;;;16.80;81.83
15382;BME280;7789;51.364;12.358;2023-04-29T15:52:38;100430.75;;;16.81;82.45
15382;BME280;7789;51.364;12.358;2023-04-29T15:57:44;100436.38;;;16.86;81.75
15382;BME280;7789;51.364;12.358;2023-04-29T16:02:47;100435.69;;;16.84;81.44
15382;BME280;7789;51.364;12.358;2023-04-29T16:07:51;100434.56;;;16.79;81.43
15382;BME280;7789;51.364;12.358;2023-04-29T16:12:56;100440.50;;;16.81;81.82
15382;BME280;7789;51.364;12.358;2023-04-29T16:17:59;100440.13;;;16.76;81.24
15382;BME280;7789;51.364;12.358;2023-04-29T16:23:03;100441.28;;;16.66;81.39
15382;BME280;7789;51.364;12.358;2023-04-29T16:28:08;100443.91;;;16.66;82.13
15382;BME280;7789;51.364;12.358;2023-04-29T16:33:11;100452.66;;;16.58;82.53
15382;BME280;7789;51.364;12.358;2023-04-29T16:38:17;100453.16;;;16.54;81.59
15382;BME280;7789;51.364;12.358;2023-04-29T16:43:22;100455.44;;;16.49;81.18
15382;BME280;7789;51.364;12.358;2023-04-29T16:48:25;100458.25;;;16.47;81.62
15382;BME280;7789;51.364;12.358;2023-04-29T16:53:28;100462.50;;;16.40;80.77
15382;BME280;7789;51.364;12.358;2023-04-29T16:58:33;100467.94;;;16.39;81.02
15382;BME280;7789;51.364;12.358;2023-04-29T17:03:37;100474.66;;;16.33;80.98
15382;BME280;7789;51.364;12.358;2023-04-29T17:08:41;100474.47;;;16.27;81.84
15382;BME280;7789;51.364;12.358;2023-04-29T17:13:46;100486.47;;;16.21;82.38
15382;BME280;7789;51.364;12.358;2023-04-29T17:18:51;100489.44;;;16.18;82.49
15382;BME280;7789;51.364;12.358;2023-04-29T17:23:55;100496.16;;;16.13;82.84
15382;BME280;7789;51.364;12.358;2023-04-29T17:29:01;100494.47;;;16.04;83.39
15382;BME280;7789;51.364;12.358;2023-04-29T17:34:06;100499.53;;;15.97;82.80
15382;BME280;7789;51.364;12.358;2023-04-29T17:39:19;100504.63;;;15.91;83.26
15382;BME280;7789;51.364;12.358;2023-04-29T17:44:25;100506.25;;;15.84;83.18
15382;BME280;7789;51.364;12.358;2023-04-29T17:49:28;100506.69;;;15.79;83.44
15382;BME280;7789;51.364;12.358;2023-04-29T17:54:32;100516.19;;;15.72;82.95
15382;BME280;7789;51.364;12.358;2023-04-29T17:59:37;100522.09;;;15.66;84.18
15382;BME280;7789;51.364;12.358;2023-04-29T18:04:40;100522.03;;;15.58;84.87
15382;BME280;7789;51.364;12.358;2023-04-29T18:09:44;100533.47;;;15.49;85.14
15382;BME280;7789;51.364;12.358;2023-04-29T18:14:49;100528.16;;;15.41;84.88
15382;BME280;7789;51.364;12.358;2023-04-29T18:19:53;100531.38;;;15.35;84.66
15382;BME280;7789;51.364;12.358;2023-04-29T18:24:57;100548.63;;;15.30;85.21
15382;BME280;7789;51.364;12.358;2023-04-29T18:30:03;100543.13;;;15.23;86.47
15382;BME280;7789;51.364;12.358;2023-04-29T18:35:08;100547.31;;;15.16;86.30
15382;BME280;7789;51.364;12.358;2023-04-29T18:40:14;100561.75;;;15.12;86.79
15382;BME280;7789;51.364;12.358;2023-04-29T18:45:20;100568.59;;;15.05;87.34
15382;BME280;7789;51.364;12.358;2023-04-29T18:50:24;100573.47;;;15.00;88.22
15382;BME280;7789;51.364;12.358;2023-04-29T18:55:27;100576.84;;;14.93;88.36
15382;BME280;7789;51.364;12.358;2023-04-29T19:00:36;100592.28;;;14.88;88.23
15382;BME280;7789;51.364;12.358;2023-04-29T19:05:39;100595.19;;;14.85;88.48
15382;BME280;7789;51.364;12.358;2023-04-29T19:10:43;100597.72;;;14.77;88.71
15382;BME280;7789;51.364;12.358;2023-04-29T19:15:48;100608.72;;;14.73;88.64
15382;BME280;7789;51.364;12.358;2023-04-29T19:20:57;100608.97;;;14.70;89.45
15382;BME280;7789;51.364;12.358;2023-04-29T19:26:06;100618.81;;;14.68;89.76
15382;BME280;7789;51.364;12.358;2023-04-29T19:31:12;100620.94;;;14.64;90.04
15382;BME280;7789;51.364;12.358;2023-04-29T19:36:15;100620.38;;;14.61;89.38
15382;BME280;7789;51.364;12.358;2023-04-29T19:41:18;100626.75;;;14.58;89.73
15382;BME280;7789;51.364;12.358;2023-04-29T19:46:24;100631.47;;;14.55;89.70
15382;BME280;7789;51.364;12.358;2023-04-29T19:51:27;100633.41;;;14.53;90.16
15382;BME280;7789;51.364;12.358;2023-04-29T19:56:30;100631.09;;;14.50;90.67
15382;BME280;7789;51.364;12.358;2023-04-29T20:01:36;100644.53;;;14.47;90.01
15382;BME280;7789;51.364;12.358;2023-04-29T20:06:39;100645.50;;;14.46;90.55
15382;BME280;7789;51.364;12.358;2023-04-29T20:11:43;100645.94;;;14.41;90.75
15382;BME280;7789;51.364;12.358;2023-04-29T20:16:49;100643.59;;;14.38;90.63
15382;BME280;7789;51.364;12.358;2023-04-29T20:21:54;100645.66;;;14.35;90.85
15382;BME280;7789;51.364;12.358;2023-04-29T20:26:57;100655.50;;;14.33;90.69
15382;BME280;7789;51.364;12.358;2023-04-29T20:32:02;100655.66;;;14.31;90.89
15382;BME280;7789;51.364;12.358;2023-04-29T20:37:07;100655.09;;;14.28;90.91
15382;BME280;7789;51.364;12.358;2023-04-29T20:42:10;100663.28;;;14.25;91.17
15382;BME280;7789;51.364;12.358;2023-04-29T20:47:15;100662.72;;;14.21;90.93
15382;BME280;7789;51.364;12.358;2023-04-29T20:52:18;100656.91;;;14.18;91.70
15382;BME280;7789;51.364;12.358;2023-04-29T20:57:22;100660.75;;;14.14;92.31
15382;BME280;7789;51.364;12.358;2023-04-29T21:02:27;100662.72;;;14.12;92.33
15382;BME280;7789;51.364;12.358;2023-04-29T21:07:31;100663.00;;;14.09;92.50
15382;BME280;7789;51.364;12.358;2023-04-29T21:12:34;100667.56;;;14.07;92.72
15382;BME280;7789;51.364;12.358;2023-04-29T21:17:39;100674.78;;;14.05;93.75
15382;BME280;7789;51.364;12.358;2023-04-29T21:22:43;100674.34;;;14.00;94.25
15382;BME280;7789;51.364;12.358;2023-04-29T21:27:47;100682.50;;;13.97;93.69
15382;BME280;7789;51.364;12.358;2023-04-29T21:32:52;100685.41;;;13.94;94.55
15382;BME280;7789;51.364;12.358;2023-04-29T21:37:56;100686.66;;;13.90;94.48
15382;BME280;7789;51.364;12.358;2023-04-29T21:42:59;100690.69;;;13.84;94.77
15382;BME280;7789;51.364;12.358;2023-04-29T21:48:11;100690.28;;;13.79;95.29
15382;BME280;7789;51.364;12.358;2023-04-29T21:53:15;100696.22;;;13.72;95.43
15382;BME280;7789;51.364;12.358;2023-04-29T21:58:18;100696.63;;;13.67;95.59
15382;BME280;7789;51.364;12.358;2023-04-29T22:03:23;100695.63;;;13.59;95.86
15382;BME280;7789;51.364;12.358;2023-04-29T22:08:27;100704.59;;;13.47;96.26
15382;BME280;7789;51.364;12.358;2023-04-29T22:13:30;100700.84;;;13.30;97.02
15382;BME280;7789;51.364;12.358;2023-04-29T22:18:35;100715.41;;;13.14;97.67
15382;BME280;7789;51.364;12.358;2023-04-29T22:23:38;100722.13;;;12.98;97.48
15382;BME280;7789;51.364;12.358;2023-04-29T22:28:41;100725.19;;;12.82;98.12
15382;BME280;7789;51.364;12.358;2023-04-29T22:33:46;100729.84;;;12.69;98.27
15382;BME280;7789;51.364;12.358;2023-04-29T22:38:49;100731.13;;;12.54;98.57
15382;BME280;7789;51.364;12.358;2023-04-29T22:43:52;100738.34;;;12.41;99.34
15382;BME280;7789;51.364;12.358;2023-04-29T22:48:59;100739.25;;;12.31;98.91
15382;BME280;7789;51.364;12.358;2023-04-29T22:54:03;100744.69;;;12.18;99.08
15382;BME280;7789;51.364;12.358;2023-04-29T22:59:06;100740.31;;;12.08;99.14
15382;BME280;7789;51.364;12.358;2023-04-29T23:04:10;100751.81;;;11.96;99.99
15382;BME280;7789;51.364;12.358;2023-04-29T23:09:15;100756.25;;;11.84;100.00
15382;BME280;7789;51.364;12.358;2023-04-29T23:14:19;100759.84;;;11.72;100.00
15382;BME280;7789;51.364;12.358;2023-04-29T23:19:24;100769.53;;;11.61;100.00
15382;BME280;7789;51.364;12.358;2023-04-29T23:24:27;100763.81;;;11.45;100.00
15382;BME280;7789;51.364;12.358;2023-04-29T23:29:31;100773.69;;;11.30;100.00
15382;BME280;7789;51.364;12.358;2023-04-29T23:34:37;100784.16;;;11.19;100.00
15382;BME280;7789;51.364;12.358;2023-04-29T23:39:40;100782.72;;;11.04;100.00
15382;BME280;7789;51.364;12.358;2023-04-29T23:44:43;100784.50;;;10.93;100.00
15382;BME280;7789;51.364;12.358;2023-04-29T23:49:48;100787.22;;;10.81;100.00
15382;BME280;7789;51.364;12.358;2023-04-29T23:54:51;100797.91;;;10.67;100.00
15382;BME280;7789;51.364;12.358;2023-04-29T23:59:55;100789.91;;;10.57;100.00
